sensor_id;sensor_type;location;lat;lon;timestamp;pressure;altitude;pressure_sealevel;temperature;humidity
40502;BME280;29631;49.168;9.848;2023-04-30T00:01:04;96926.50;;;17.26;87.26
40502;BME280;29631;49.168;9.848;2023-04-30T00:03:30;96907.03;;;17.09;87.26
40502;BME280;29631;49.168;9.848;2023-04-30T00:05:55;96946.66;;;17.33;87.00
40502;BME280;29631;49.168;9.848;2023-04-30T00:08:21;96944.47;;;17.30;87.09
40502;BME280;29631;49.168;9.848;2023-04-30T00:10:47;96898.38;;;17.02;87.22
40502;BME280;29631;49.168;9.848;2023-04-30T00:13:13;96938.09;;;17.31;87.58
40502;BME280;29631;49.168;9.848;2023-04-30T00:15:39;96953.34;;;17.36;87.57
40502;BME280;29631;49.168;9.848;2023-04-30T00:18:05;96964.03;;;17.36;86.71
40502;BME280;29631;49.168;9.848;2023-04-30T00:20:32;96961.94;;;17.38;87.28
40502;BME280;29631;49.168;9.848;2023-04-30T00:22:59;96967.28;;;17.38;87.52
40502;BME280;29631;49.168;9.848;2023-04-30T00:25:25;96962.44;;;17.35;87.00
40502;BME280;29631;49.168;9.848;2023-04-30T00:27:51;96961.59;;;17.34;86.90
40502;BME280;29631;49.168;9.848;2023-04-30T00:30:17;96955.16;;;17.30;86.82
40502;BME280;29631;49.168;9.848;2023-04-30T00:32:42;96954.31;;;17.30;87.32
40502;BME280;29631;49.168;9.848;2023-04-30T00:35:10;96956.97;;;17.30;87.29
40502;BME280;29631;49.168;9.848;2023-04-30T00:37:36;96952.81;;;17.34;87.46
40502;BME280;29631;49.168;9.848;2023-04-30T00:40:02;96948.44;;;17.28;86.98
40502;BME280;29631;49.168;9.848;2023-04-30T00:42:28;96948.44;;;17.28;87.59
40502;BME280;29631;49.168;9.848;2023-04-30T00:44:54;96955.94;;;17.31;86.78
40502;BME280;29631;49.168;9.848;2023-04-30T00:47:19;96951.53;;;17.25;86.89
40502;BME280;29631;49.168;9.848;2023-04-30T00:49:45;96952.34;;;17.25;87.38
40502;BME280;29631;49.168;9.848;2023-04-30T00:52:12;96951.78;;;17.23;86.95
40502;BME280;29631;49.168;9.848;2023-04-30T00:54:38;96960.56;;;17.24;86.88
40502;BME280;29631;49.168;9.848;2023-04-30T00:57:04;96965.09;;;17.23;87.10
40502;BME280;29631;49.168;9.848;2023-04-30T00:59:32;96968.56;;;17.24;86.94
40502;BME280;29631;49.168;9.848;2023-04-30T01:01:58;96966.41;;;17.21;87.20
40502;BME280;29631;49.168;9.848;2023-04-30T01:04:23;96969.59;;;17.23;86.83
40502;BME280;29631;49.168;9.848;2023-04-30T01:06:50;96966.84;;;17.18;86.99
40502;BME280;29631;49.168;9.848;2023-04-30T01:09:16;96963.63;;;17.16;87.01
40502;BME280;29631;49.168;9.848;2023-04-30T01:12:48;96981.81;;;17.19;87.44
40502;BME280;29631;49.168;9.848;2023-04-30T01:21:08;96986.81;;;17.15;87.11
40502;BME280;29631;49.168;9.848;2023-04-30T01:27:06;96975.34;;;17.15;87.36
40502;BME280;29631;49.168;9.848;2023-04-30T01:29:37;96976.84;;;17.11;87.41
40502;BME280;29631;49.168;9.848;2023-04-30T01:32:04;96981.72;;;17.14;87.07
40502;BME280;29631;49.168;9.848;2023-04-30T01:34:29;96985.41;;;17.13;87.55
40502;BME280;29631;49.168;9.848;2023-04-30T01:40:19;96984.59;;;17.12;87.98
40502;BME280;29631;49.168;9.848;2023-04-30T01:46:25;96973.41;;;16.99;87.91
40502;BME280;29631;49.168;9.848;2023-04-30T01:51:44;96992.28;;;17.09;88.30
40502;BME280;29631;49.168;9.848;2023-04-30T01:54:20;96983.94;;;17.05;88.21
40502;BME280;29631;49.168;9.848;2023-04-30T01:57:00;96989.28;;;17.05;88.28
40502;BME280;29631;49.168;9.848;2023-04-30T01:59:35;96983.72;;;17.07;88.17
40502;BME280;29631;49.168;9.848;2023-04-30T02:02:03;96984.16;;;17.04;87.93
40502;BME280;29631;49.168;9.848;2023-04-30T02:04:28;96974.34;;;17.04;88.37
40502;BME280;29631;49.168;9.848;2023-04-30T02:06:54;96977.22;;;17.03;87.80
40502;BME280;29631;49.168;9.848;2023-04-30T02:09:20;96985.22;;;17.03;87.51
40502;BME280;29631;49.168;9.848;2023-04-30T02:11:48;96987.31;;;17.01;87.92
40502;BME280;29631;49.168;9.848;2023-04-30T02:14:14;96988.94;;;17.02;88.11
40502;BME280;29631;49.168;9.848;2023-04-30T02:16:40;96980.03;;;16.96;87.32
40502;BME280;29631;49.168;9.848;2023-04-30T02:19:05;96984.88;;;16.99;87.30
40502;BME280;29631;49.168;9.848;2023-04-30T02:21:31;96980.81;;;16.97;88.24
40502;BME280;29631;49.168;9.848;2023-04-30T02:23:57;96982.19;;;16.99;88.17
40502;BME280;29631;49.168;9.848;2023-04-30T02:26:23;96982.19;;;16.99;87.69
40502;BME280;29631;49.168;9.848;2023-04-30T02:28:48;96981.16;;;17.00;87.54
40502;BME280;29631;49.168;9.848;2023-04-30T02:31:14;96970.91;;;16.92;87.89
40502;BME280;29631;49.168;9.848;2023-04-30T02:33:40;96971.69;;;16.93;87.53
40502;BME280;29631;49.168;9.848;2023-04-30T02:36:05;96963.72;;;16.93;87.54
40502;BME280;29631;49.168;9.848;2023-04-30T02:38:31;96962.56;;;16.89;87.46
40502;BME280;29631;49.168;9.848;2023-04-30T02:40:57;96965.78;;;16.91;87.83
40502;BME280;29631;49.168;9.848;2023-04-30T02:43:22;96969.50;;;16.90;87.52
40502;BME280;29631;49.168;9.848;2023-04-30T02:45:48;96968.94;;;16.88;87.53
40502;BME280;29631;49.168;9.848;2023-04-30T02:48:14;96959.31;;;16.87;87.74
40502;BME280;29631;49.168;9.848;2023-04-30T02:50:40;96969.97;;;16.87;87.43
40502;BME280;29631;49.168;9.848;2023-04-30T02:53:06;96961.91;;;16.82;87.85
40502;BME280;29631;49.168;9.848;2023-04-30T02:55:31;96967.56;;;16.85;87.19
40502;BME280;29631;49.168;9.848;2023-04-30T02:57:57;96963.53;;;16.83;87.18
40502;BME280;29631;49.168;9.848;2023-04-30T03:00:23;96967.22;;;16.82;87.68
40502;BME280;29631;49.168;9.848;2023-04-30T03:02:48;96976.34;;;16.86;86.97
40502;BME280;29631;49.168;9.848;2023-04-30T03:05:14;96968.03;;;16.82;87.57
40502;BME280;29631;49.168;9.848;2023-04-30T03:07:40;96974.97;;;16.83;87.14
40502;BME280;29631;49.168;9.848;2023-04-30T03:10:07;96969.31;;;16.80;87.61
40502;BME280;29631;49.168;9.848;2023-04-30T03:12:33;96962.00;;;16.75;87.84
40502;BME280;29631;49.168;9.848;2023-04-30T03:14:59;96978.44;;;16.84;87.37
40502;BME280;29631;49.168;9.848;2023-04-30T03:17:24;96965.59;;;16.81;87.25
40502;BME280;29631;49.168;9.848;2023-04-30T03:19:50;96968.72;;;16.78;87.41
40502;BME280;29631;49.168;9.848;2023-04-30T03:22:16;96970.94;;;16.81;87.29
40502;BME280;29631;49.168;9.848;2023-04-30T03:24:44;96967.34;;;16.75;87.17
40502;BME280;29631;49.168;9.848;2023-04-30T03:27:10;96967.34;;;16.75;87.83
40502;BME280;29631;49.168;9.848;2023-04-30T03:29:36;96973.50;;;16.76;87.80
40502;BME280;29631;49.168;9.848;2023-04-30T03:32:02;96971.88;;;16.75;87.37
40502;BME280;29631;49.168;9.848;2023-04-30T03:34:28;96970.25;;;16.74;87.30
40502;BME280;29631;49.168;9.848;2023-04-30T03:36:56;96970.84;;;16.76;87.83
40502;BME280;29631;49.168;9.848;2023-04-30T03:39:21;96970.84;;;16.76;87.93
40502;BME280;29631;49.168;9.848;2023-04-30T03:41:47;96969.66;;;16.72;87.82
40502;BME280;29631;49.168;9.848;2023-04-30T03:44:13;96969.66;;;16.72;87.55
40502;BME280;29631;49.168;9.848;2023-04-30T03:46:41;96975.22;;;16.71;87.33
40502;BME280;29631;49.168;9.848;2023-04-30T03:49:08;96976.28;;;16.70;87.47
40502;BME280;29631;49.168;9.848;2023-04-30T03:51:35;96978.69;;;16.71;87.57
40502;BME280;29631;49.168;9.848;2023-04-30T03:54:05;96959.84;;;16.61;87.63
40502;BME280;29631;49.168;9.848;2023-04-30T03:56:32;96974.88;;;16.67;87.44
40502;BME280;29631;49.168;9.848;2023-04-30T03:58:58;96966.91;;;16.67;87.33
40502;BME280;29631;49.168;9.848;2023-04-30T04:01:24;96975.22;;;16.71;87.09
40502;BME280;29631;49.168;9.848;2023-04-30T04:03:50;96964.69;;;16.64;87.45
40502;BME280;29631;49.168;9.848;2023-04-30T04:06:15;96970.03;;;16.64;87.80
40502;BME280;29631;49.168;9.848;2023-04-30T04:08:42;96972.22;;;16.67;87.42
40502;BME280;29631;49.168;9.848;2023-04-30T04:11:11;96978.59;;;16.66;86.98
40502;BME280;29631;49.168;9.848;2023-04-30T04:13:37;96970.50;;;16.61;87.50
40502;BME280;29631;49.168;9.848;2023-04-30T04:16:03;96967.84;;;16.61;87.27
40502;BME280;29631;49.168;9.848;2023-04-30T04:18:29;96979.97;;;16.69;87.24
40502;BME280;29631;49.168;9.848;2023-04-30T04:20:55;96978.00;;;16.64;87.83
40502;BME280;29631;49.168;9.848;2023-04-30T04:23:22;96981.00;;;16.68;86.85
40502;BME280;29631;49.168;9.848;2023-04-30T04:25:47;96981.00;;;16.68;86.68
40502;BME280;29631;49.168;9.848;2023-04-30T04:28:16;96983.91;;;16.66;86.61
40502;BME280;29631;49.168;9.848;2023-04-30T04:30:42;96967.59;;;16.51;86.82
40502;BME280;29631;49.168;9.848;2023-04-30T04:33:08;96981.16;;;16.61;87.16
40502;BME280;29631;49.168;9.848;2023-04-30T04:35:35;96982.78;;;16.62;86.97
40502;BME280;29631;49.168;9.848;2023-04-30T04:38:01;96991.81;;;16.61;87.12
40502;BME280;29631;49.168;9.848;2023-04-30T04:40:27;96988.09;;;16.62;87.30
40502;BME280;29631;49.168;9.848;2023-04-30T04:42:53;96991.66;;;16.68;87.05
40502;BME280;29631;49.168;9.848;2023-04-30T04:45:20;96999.88;;;16.66;87.78
40502;BME280;29631;49.168;9.848;2023-04-30T04:47:46;96990.75;;;16.62;87.20
40502;BME280;29631;49.168;9.848;2023-04-30T04:50:12;96992.84;;;16.60;87.17
40502;BME280;29631;49.168;9.848;2023-04-30T04:52:39;96993.97;;;16.64;87.43
40502;BME280;29631;49.168;9.848;2023-04-30T04:55:05;96992.59;;;16.62;87.75
40502;BME280;29631;49.168;9.848;2023-04-30T04:57:31;97001.97;;;16.64;87.30
40502;BME280;29631;49.168;9.848;2023-04-30T04:59:57;97003.03;;;16.63;87.11
40502;BME280;29631;49.168;9.848;2023-04-30T05:02:23;96998.84;;;16.67;87.34
40502;BME280;29631;49.168;9.848;2023-04-30T05:04:49;97007.44;;;16.69;87.21
40502;BME280;29631;49.168;9.848;2023-04-30T05:07:16;96994.22;;;16.63;87.74
40502;BME280;29631;49.168;9.848;2023-04-30T05:09:46;96999.88;;;16.66;87.85
40502;BME280;29631;49.168;9.848;2023-04-30T05:12:13;97003.94;;;16.69;87.21
40502;BME280;29631;49.168;9.848;2023-04-30T05:14:39;97008.31;;;16.74;87.36
40502;BME280;29631;49.168;9.848;2023-04-30T05:17:05;97001.63;;;16.72;87.83
40502;BME280;29631;49.168;9.848;2023-04-30T05:19:31;97009.16;;;16.75;87.64
40502;BME280;29631;49.168;9.848;2023-04-30T05:21:57;96999.28;;;16.75;87.34
40502;BME280;29631;49.168;9.848;2023-04-30T05:24:23;97002.19;;;16.74;87.51
40502;BME280;29631;49.168;9.848;2023-04-30T05:26:49;96994.13;;;16.69;87.22
40502;BME280;29631;49.168;9.848;2023-04-30T05:29:14;97017.00;;;16.81;87.54
40502;BME280;29631;49.168;9.848;2023-04-30T05:31:40;97013.53;;;16.81;87.73
40502;BME280;29631;49.168;9.848;2023-04-30T05:34:06;97004.16;;;16.78;87.53
40502;BME280;29631;49.168;9.848;2023-04-30T05:36:32;97008.56;;;16.84;88.02
40502;BME280;29631;49.168;9.848;2023-04-30T05:38:58;97007.50;;;16.85;87.38
40502;BME280;29631;49.168;9.848;2023-04-30T05:41:23;97010.53;;;16.89;87.27
40502;BME280;29631;49.168;9.848;2023-04-30T05:43:49;97006.78;;;16.90;87.21
40502;BME280;29631;49.168;9.848;2023-04-30T05:46:15;97013.28;;;16.94;87.42
40502;BME280;29631;49.168;9.848;2023-04-30T05:48:41;97003.66;;;16.93;88.22
40502;BME280;29631;49.168;9.848;2023-04-30T05:51:06;97007.47;;;16.97;87.34
40502;BME280;29631;49.168;9.848;2023-04-30T05:53:32;97013.97;;;17.01;87.76
40502;BME280;29631;49.168;9.848;2023-04-30T05:55:58;97002.47;;;17.00;87.92
40502;BME280;29631;49.168;9.848;2023-04-30T05:58:24;97012.53;;;17.10;87.28
40502;BME280;29631;49.168;9.848;2023-04-30T06:00:50;97002.94;;;17.09;87.48
40502;BME280;29631;49.168;9.848;2023-04-30T06:03:19;97001.41;;;17.13;87.99
40502;BME280;29631;49.168;9.848;2023-04-30T06:05:46;97003.03;;;17.14;87.89
40502;BME280;29631;49.168;9.848;2023-04-30T06:08:12;97014.38;;;17.21;87.50
40502;BME280;29631;49.168;9.848;2023-04-30T06:10:38;97011.44;;;17.22;87.62
40502;BME280;29631;49.168;9.848;2023-04-30T06:13:04;97011.78;;;17.26;87.38
40502;BME280;29631;49.168;9.848;2023-04-30T06:15:30;97002.78;;;17.27;87.32
40502;BME280;29631;49.168;9.848;2023-04-30T06:17:56;96997.47;;;17.27;87.35
40502;BME280;29631;49.168;9.848;2023-04-30T06:20:22;97011.53;;;17.39;87.20
40502;BME280;29631;49.168;9.848;2023-04-30T06:22:47;97007.50;;;17.36;87.62
40502;BME280;29631;49.168;9.848;2023-04-30T06:25:13;97006.22;;;17.39;87.59
40502;BME280;29631;49.168;9.848;2023-04-30T06:27:39;96996.34;;;17.39;87.67
40502;BME280;29631;49.168;9.848;2023-04-30T06:30:05;97012.78;;;17.48;87.74
40502;BME280;29631;49.168;9.848;2023-04-30T06:32:31;97004.47;;;17.44;87.55
40502;BME280;29631;49.168;9.848;2023-04-30T06:34:57;96993.47;;;17.41;87.74
40502;BME280;29631;49.168;9.848;2023-04-30T06:37:23;97007.53;;;17.52;87.68
40502;BME280;29631;49.168;9.848;2023-04-30T06:39:49;97028.25;;;17.62;87.49
40502;BME280;29631;49.168;9.848;2023-04-30T06:42:16;97020.78;;;17.64;87.80
40502;BME280;29631;49.168;9.848;2023-04-30T06:44:41;97012.56;;;17.65;87.42
40502;BME280;29631;49.168;9.848;2023-04-30T06:47:07;97016.94;;;17.71;87.44
40502;BME280;29631;49.168;9.848;2023-04-30T06:49:33;97011.63;;;17.71;87.70
40502;BME280;29631;49.168;9.848;2023-04-30T06:51:59;97000.44;;;17.74;88.08
40502;BME280;29631;49.168;9.848;2023-04-30T06:54:26;97012.34;;;17.83;87.73
40502;BME280;29631;49.168;9.848;2023-04-30T06:56:52;97001.75;;;17.88;88.13
40502;BME280;29631;49.168;9.848;2023-04-30T06:59:18;97018.44;;;17.95;87.94
40502;BME280;29631;49.168;9.848;2023-04-30T07:01:44;96960.75;;;17.61;88.09
40502;BME280;29631;49.168;9.848;2023-04-30T07:04:10;96995.97;;;17.91;87.65
40502;BME280;29631;49.168;9.848;2023-04-30T07:06:36;97011.31;;;18.01;87.49
40502;BME280;29631;49.168;9.848;2023-04-30T07:09:02;97007.81;;;18.00;87.54
40502;BME280;29631;49.168;9.848;2023-04-30T07:11:28;97020.53;;;18.10;87.45
40502;BME280;29631;49.168;9.848;2023-04-30T07:13:53;97004.19;;;18.06;87.63
40502;BME280;29631;49.168;9.848;2023-04-30T07:16:19;97017.22;;;18.19;87.65
40502;BME280;29631;49.168;9.848;2023-04-30T07:18:45;97011.69;;;18.21;87.15
40502;BME280;29631;49.168;9.848;2023-04-30T07:21:13;97004.06;;;18.29;87.50
40502;BME280;29631;49.168;9.848;2023-04-30T07:23:39;97022.44;;;18.42;87.85
40502;BME280;29631;49.168;9.848;2023-04-30T07:26:05;97002.59;;;18.38;87.45
40502;BME280;29631;49.168;9.848;2023-04-30T07:28:31;96995.66;;;18.37;87.12
40502;BME280;29631;49.168;9.848;2023-04-30T07:30:56;97014.06;;;18.55;87.54
40502;BME280;29631;49.168;9.848;2023-04-30T07:33:22;97013.09;;;18.61;87.77
40502;BME280;29631;49.168;9.848;2023-04-30T07:35:48;97006.63;;;18.57;87.22
40502;BME280;29631;49.168;9.848;2023-04-30T07:38:14;97017.44;;;18.67;87.19
40502;BME280;29631;49.168;9.848;2023-04-30T07:40:39;97013.84;;;18.78;87.06
40502;BME280;29631;49.168;9.848;2023-04-30T07:43:05;97030.50;;;18.85;87.38
40502;BME280;29631;49.168;9.848;2023-04-30T07:45:31;97011.31;;;18.88;86.92
40502;BME280;29631;49.168;9.848;2023-04-30T07:47:58;97011.94;;;18.94;86.73
40502;BME280;29631;49.168;9.848;2023-04-30T07:50:24;97002.75;;;18.86;86.68
40502;BME280;29631;49.168;9.848;2023-04-30T07:52:49;97011.75;;;19.01;86.67
40502;BME280;29631;49.168;9.848;2023-04-30T07:55:15;97012.63;;;19.06;86.78
40502;BME280;29631;49.168;9.848;2023-04-30T07:57:41;97010.56;;;19.08;86.56
40502;BME280;29631;49.168;9.848;2023-04-30T08:00:07;97006.81;;;19.09;86.52
40502;BME280;29631;49.168;9.848;2023-04-30T08:02:33;97008.44;;;19.10;86.36
40502;BME280;29631;49.168;9.848;2023-04-30T08:04:59;96991.72;;;19.03;85.56
40502;BME280;29631;49.168;9.848;2023-04-30T08:07:24;97016.03;;;19.18;85.86
40502;BME280;29631;49.168;9.848;2023-04-30T08:09:50;96996.72;;;19.16;86.00
40502;BME280;29631;49.168;9.848;2023-04-30T08:12:16;97006.25;;;19.29;86.03
40502;BME280;29631;49.168;9.848;2023-04-30T08:14:42;96993.44;;;19.31;85.52
40502;BME280;29631;49.168;9.848;2023-04-30T08:17:08;97017.97;;;19.49;85.91
40502;BME280;29631;49.168;9.848;2023-04-30T08:19:34;96993.38;;;19.47;85.30
40502;BME280;29631;49.168;9.848;2023-04-30T08:22:00;96994.47;;;19.51;85.72
40502;BME280;29631;49.168;9.848;2023-04-30T08:24:26;97012.34;;;19.72;85.19
40502;BME280;29631;49.168;9.848;2023-04-30T08:26:51;96955.91;;;19.47;84.82
40502;BME280;29631;49.168;9.848;2023-04-30T08:29:17;96994.44;;;19.77;85.14
40502;BME280;29631;49.168;9.848;2023-04-30T08:31:43;97011.25;;;19.94;84.87
40502;BME280;29631;49.168;9.848;2023-04-30T08:34:08;97007.00;;;19.98;84.54
40502;BME280;29631;49.168;9.848;2023-04-30T08:36:34;96992.25;;;19.96;83.97
40502;BME280;29631;49.168;9.848;2023-04-30T08:39:00;97011.13;;;20.11;83.77
40502;BME280;29631;49.168;9.848;2023-04-30T08:41:31;97002.00;;;20.12;83.45
40502;BME280;29631;49.168;9.848;2023-04-30T08:44:01;97004.19;;;20.15;83.44
40502;BME280;29631;49.168;9.848;2023-04-30T08:46:31;96999.16;;;20.23;83.05
40502;BME280;29631;49.168;9.848;2023-04-30T08:48:59;96973.09;;;20.14;82.87
40502;BME280;29631;49.168;9.848;2023-04-30T08:51:26;96990.34;;;20.28;83.32
40502;BME280;29631;49.168;9.848;2023-04-30T08:53:54;96953.25;;;20.05;83.34
40502;BME280;29631;49.168;9.848;2023-04-30T08:56:21;96999.00;;;20.40;83.29
40502;BME280;29631;49.168;9.848;2023-04-30T08:58:47;97022.19;;;20.55;83.09
40502;BME280;29631;49.168;9.848;2023-04-30T09:01:12;97010.09;;;20.53;82.15
40502;BME280;29631;49.168;9.848;2023-04-30T09:03:39;97005.03;;;20.56;82.05
40502;BME280;29631;49.168;9.848;2023-04-30T09:06:05;97010.44;;;20.66;82.09
40502;BME280;29631;49.168;9.848;2023-04-30T09:08:45;97006.72;;;20.67;81.10
40502;BME280;29631;49.168;9.848;2023-04-30T09:11:24;97015.88;;;20.76;80.57
40502;BME280;29631;49.168;9.848;2023-04-30T09:13:59;97011.03;;;20.73;80.89
40502;BME280;29631;49.168;9.848;2023-04-30T09:16:27;96991.94;;;20.65;81.16
40502;BME280;29631;49.168;9.848;2023-04-30T09:18:57;97015.66;;;20.83;80.58
40502;BME280;29631;49.168;9.848;2023-04-30T09:21:36;97013.19;;;20.76;80.06
40502;BME280;29631;49.168;9.848;2023-04-30T09:24:04;97017.00;;;20.80;80.30
40502;BME280;29631;49.168;9.848;2023-04-30T09:26:33;97006.78;;;20.77;80.50
40502;BME280;29631;49.168;9.848;2023-04-30T09:28:59;97020.75;;;20.84;80.25
40502;BME280;29631;49.168;9.848;2023-04-30T09:31:26;97008.66;;;20.77;80.28
40502;BME280;29631;49.168;9.848;2023-04-30T09:33:52;96947.06;;;20.41;80.43
40502;BME280;29631;49.168;9.848;2023-04-30T09:36:19;97010.81;;;20.80;80.68
40502;BME280;29631;49.168;9.848;2023-04-30T09:38:45;97001.41;;;20.77;80.31
40502;BME280;29631;49.168;9.848;2023-04-30T09:41:27;96984.22;;;20.73;79.75
40502;BME280;29631;49.168;9.848;2023-04-30T09:43:54;97009.28;;;20.94;79.95
40502;BME280;29631;49.168;9.848;2023-04-30T09:46:28;97004.75;;;20.94;80.00
40502;BME280;29631;49.168;9.848;2023-04-30T09:48:59;96978.91;;;20.78;79.61
40502;BME280;29631;49.168;9.848;2023-04-30T09:51:26;97003.69;;;20.95;79.81
40502;BME280;29631;49.168;9.848;2023-04-30T09:53:53;96985.34;;;20.77;79.75
40502;BME280;29631;49.168;9.848;2023-04-30T09:56:22;96999.34;;;20.89;79.74
40502;BME280;29631;49.168;9.848;2023-04-30T09:58:55;97000.44;;;20.93;79.92
40502;BME280;29631;49.168;9.848;2023-04-30T10:01:26;96998.84;;;20.97;79.65
40502;BME280;29631;49.168;9.848;2023-04-30T10:03:52;97018.19;;;21.04;79.42
40502;BME280;29631;49.168;9.848;2023-04-30T10:06:20;96997.78;;;20.98;79.22
40502;BME280;29631;49.168;9.848;2023-04-30T10:08:52;97005.06;;;21.03;79.46
40502;BME280;29631;49.168;9.848;2023-04-30T10:11:26;97007.53;;;21.14;79.73
40502;BME280;29631;49.168;9.848;2023-04-30T10:14:12;96997.28;;;21.06;79.36
40502;BME280;29631;49.168;9.848;2023-04-30T10:17:10;97013.41;;;21.11;79.60
40502;BME280;29631;49.168;9.848;2023-04-30T10:19:39;96995.13;;;21.03;79.46
40502;BME280;29631;49.168;9.848;2023-04-30T10:22:08;96989.47;;;21.00;79.05
40502;BME280;29631;49.168;9.848;2023-04-30T10:24:34;96980.06;;;20.97;79.30
40502;BME280;29631;49.168;9.848;2023-04-30T10:26:59;96980.38;;;21.01;79.12
40502;BME280;29631;49.168;9.848;2023-04-30T10:29:25;96992.50;;;21.18;78.73
40502;BME280;29631;49.168;9.848;2023-04-30T10:31:52;96991.97;;;21.21;78.55
40502;BME280;29631;49.168;9.848;2023-04-30T10:35:14;96983.91;;;21.16;78.74
40502;BME280;29631;49.168;9.848;2023-04-30T10:40:17;96983.38;;;21.14;78.44
40502;BME280;29631;49.168;9.848;2023-04-30T10:42:48;96984.97;;;21.15;78.55
40502;BME280;29631;49.168;9.848;2023-04-30T10:45:17;96979.09;;;21.13;78.49
40502;BME280;29631;49.168;9.848;2023-04-30T10:47:45;96959.75;;;21.06;78.25
40502;BME280;29631;49.168;9.848;2023-04-30T10:50:11;96980.16;;;21.17;78.19
40502;BME280;29631;49.168;9.848;2023-04-30T10:52:38;96949.03;;;21.06;77.95
40502;BME280;29631;49.168;9.848;2023-04-30T10:55:06;96966.19;;;21.15;77.50
40502;BME280;29631;49.168;9.848;2023-04-30T10:57:40;96985.03;;;21.25;77.96
40502;BME280;29631;49.168;9.848;2023-04-30T11:02:44;96973.19;;;21.21;78.29
40502;BME280;29631;49.168;9.848;2023-04-30T11:05:16;96957.09;;;21.21;78.44
40502;BME280;29631;49.168;9.848;2023-04-30T11:10:16;96964.13;;;21.32;77.47
40502;BME280;29631;49.168;9.848;2023-04-30T11:12:53;96954.97;;;21.28;77.23
40502;BME280;29631;49.168;9.848;2023-04-30T11:15:24;96958.25;;;21.40;77.62
40502;BME280;29631;49.168;9.848;2023-04-30T11:17:50;96973.81;;;21.43;77.22
40502;BME280;29631;49.168;9.848;2023-04-30T11:20:23;96966.31;;;21.40;77.10
40502;BME280;29631;49.168;9.848;2023-04-30T11:23:10;96957.16;;;21.36;77.13
40502;BME280;29631;49.168;9.848;2023-04-30T11:25:44;96954.75;;;21.39;77.14
40502;BME280;29631;49.168;9.848;2023-04-30T11:28:20;96957.97;;;21.41;77.32
40502;BME280;29631;49.168;9.848;2023-04-30T11:30:57;96961.44;;;21.42;77.23
40502;BME280;29631;49.168;9.848;2023-04-30T11:33:25;96966.31;;;21.45;77.61
40502;BME280;29631;49.168;9.848;2023-04-30T11:35:53;96967.09;;;21.45;77.44
40502;BME280;29631;49.168;9.848;2023-04-30T11:38:34;96977.03;;;21.45;76.82
40502;BME280;29631;49.168;9.848;2023-04-30T11:41:01;96965.47;;;21.44;76.71
40502;BME280;29631;49.168;9.848;2023-04-30T11:43:29;96965.75;;;21.38;77.05
40502;BME280;29631;49.168;9.848;2023-04-30T11:48:34;96950.72;;;21.32;76.79
40502;BME280;29631;49.168;9.848;2023-04-30T11:51:22;96954.47;;;21.36;76.65
40502;BME280;29631;49.168;9.848;2023-04-30T11:53:52;96947.50;;;21.40;76.56
40502;BME280;29631;49.168;9.848;2023-04-30T11:56:23;96947.50;;;21.40;76.61
40502;BME280;29631;49.168;9.848;2023-04-30T11:58:51;96953.69;;;21.45;76.48
40502;BME280;29631;49.168;9.848;2023-04-30T12:01:18;96954.22;;;21.47;76.68
40502;BME280;29631;49.168;9.848;2023-04-30T12:03:48;96920.66;;;21.30;76.59
40502;BME280;29631;49.168;9.848;2023-04-30T12:06:26;96946.41;;;21.41;76.74
40502;BME280;29631;49.168;9.848;2023-04-30T12:08:57;96917.97;;;21.25;77.04
40502;BME280;29631;49.168;9.848;2023-04-30T12:11:28;96944.56;;;21.41;76.45
40502;BME280;29631;49.168;9.848;2023-04-30T12:14:02;96949.66;;;21.48;76.41
40502;BME280;29631;49.168;9.848;2023-04-30T12:16:49;96927.09;;;21.34;76.41
40502;BME280;29631;49.168;9.848;2023-04-30T12:19:20;96937.84;;;21.39;76.45
40502;BME280;29631;49.168;9.848;2023-04-30T12:21:47;96924.66;;;21.27;76.41
40502;BME280;29631;49.168;9.848;2023-04-30T12:24:16;96944.28;;;21.38;76.14
40502;BME280;29631;49.168;9.848;2023-04-30T12:26:42;96931.13;;;21.36;76.49
40502;BME280;29631;49.168;9.848;2023-04-30T12:29:18;96909.09;;;21.19;75.88
40502;BME280;29631;49.168;9.848;2023-04-30T12:31:47;96925.50;;;21.33;76.25
40502;BME280;29631;49.168;9.848;2023-04-30T12:34:14;96923.88;;;21.32;76.09
40502;BME280;29631;49.168;9.848;2023-04-30T12:36:40;96926.00;;;21.30;75.86
40502;BME280;29631;49.168;9.848;2023-04-30T12:39:16;96928.16;;;21.28;75.50
40502;BME280;29631;49.168;9.848;2023-04-30T12:41:47;96919.03;;;21.29;75.71
40502;BME280;29631;49.168;9.848;2023-04-30T12:44:21;96927.34;;;21.32;75.54
40502;BME280;29631;49.168;9.848;2023-04-30T12:46:52;96901.59;;;21.21;75.26
40502;BME280;29631;49.168;9.848;2023-04-30T12:49:33;96924.16;;;21.40;74.85
40502;BME280;29631;49.168;9.848;2023-04-30T12:52:09;96907.50;;;21.33;74.60
40502;BME280;29631;49.168;9.848;2023-04-30T12:54:36;96911.03;;;21.39;74.55
40502;BME280;29631;49.168;9.848;2023-04-30T12:57:09;96901.59;;;21.31;74.11
40502;BME280;29631;49.168;9.848;2023-04-30T13:02:23;96894.38;;;21.32;74.52
40502;BME280;29631;49.168;9.848;2023-04-30T13:04:49;96889.00;;;21.37;74.33
40502;BME280;29631;49.168;9.848;2023-04-30T13:07:15;96889.78;;;21.32;74.21
40502;BME280;29631;49.168;9.848;2023-04-30T13:09:41;96894.38;;;21.32;74.36
40502;BME280;29631;49.168;9.848;2023-04-30T13:12:07;96871.81;;;21.18;74.57
40502;BME280;29631;49.168;9.848;2023-04-30T13:14:33;96891.41;;;21.33;74.57
40502;BME280;29631;49.168;9.848;2023-04-30T13:16:59;96882.84;;;21.36;75.02
40502;BME280;29631;49.168;9.848;2023-04-30T13:19:29;96881.78;;;21.42;74.91
40502;BME280;29631;49.168;9.848;2023-04-30T13:21:55;96878.81;;;21.49;74.94
40502;BME280;29631;49.168;9.848;2023-04-30T13:24:22;96875.09;;;21.55;74.73
40502;BME280;29631;49.168;9.848;2023-04-30T13:26:47;96878.88;;;21.64;75.00
40502;BME280;29631;49.168;9.848;2023-04-30T13:29:13;96878.06;;;21.68;74.76
40502;BME280;29631;49.168;9.848;2023-04-30T13:31:39;96877.00;;;21.69;74.37
40502;BME280;29631;49.168;9.848;2023-04-30T13:34:08;96870.78;;;21.74;74.59
40502;BME280;29631;49.168;9.848;2023-04-30T13:36:34;96877.25;;;21.83;74.65